sensor_id;sensor_type;location;lat;lon;timestamp;pressure;altitude;pressure_sealevel;temperature;humidity
74881;BME280;63427;49.654;6.596;2023-03-01T00:00:34;100735.65;;;0.72;36.16
74881;BME280;63427;49.654;6.596;2023-03-01T00:02:59;100740.96;;;0.73;36.17
74881;BME280;63427;49.654;6.596;2023-03-01T00:05:25;100743.19;;;0.63;36.16
74881;BME280;63427;49.654;6.596;2023-03-01T00:07:52;100743.75;;;0.86;36.10
74881;BME280;63427;49.654;6.596;2023-03-01T00:10:16;100745.23;;;0.39;36.11
74881;BME280;63427;49.654;6.596;2023-03-01T00:12:41;100738.02;;;0.34;36.21
74881;BME280;63427;49.654;6.596;2023-03-01T00:15:08;100738.76;;;0.29;36.11
74881;BME280;63427;49.654;6.596;2023-03-01T00:17:32;100739.45;;;0.31;36.08
74881;BME280;63427;49.654;6.596;2023-03-01T00:19:58;100741.06;;;0.24;36.19
74881;BME280;63427;49.654;6.596;2023-03-01T00:22:23;100735.33;;;0.67;36.34
74881;BME280;63427;49.654;6.596;2023-03-01T00:24:48;100734.38;;;0.48;36.21
74881;BME280;63427;49.654;6.596;2023-03-01T00:27:13;100741.98;;;0.34;36.23
74881;BME280;63427;49.654;6.596;2023-03-01T00:29:38;100741.39;;;0.63;36.25
74881;BME280;63427;49.654;6.596;2023-03-01T00:32:04;100745.83;;;0.69;36.29
74881;BME280;63427;49.654;6.596;2023-03-01T00:34:30;100748.47;;;-0.09;37.02
74881;BME280;63427;49.654;6.596;2023-03-01T00:36:55;100745.68;;;0.24;36.94
74881;BME280;63427;49.654;6.596;2023-03-01T00:39:20;100746.85;;;0.53;36.65
74881;BME280;63427;49.654;6.596;2023-03-01T00:41:45;100739.54;;;0.18;36.80
74881;BME280;63427;49.654;6.596;2023-03-01T00:44:10;100738.53;;;0.35;36.59
74881;BME280;63427;49.654;6.596;2023-03-01T00:46:35;100734.12;;;0.12;36.60
74881;BME280;63427;49.654;6.596;2023-03-01T00:49:00;100737.44;;;0.38;36.56
74881;BME280;63427;49.654;6.596;2023-03-01T00:51:27;100738.56;;;0.40;36.46
74881;BME280;63427;49.654;6.596;2023-03-01T00:53:52;100737.83;;;0.33;36.57
74881;BME280;63427;49.654;6.596;2023-03-01T00:56:16;100743.08;;;0.31;36.55
74881;BME280;63427;49.654;6.596;2023-03-01T00:58:42;100741.97;;;0.41;36.54
74881;BME280;63427;49.654;6.596;2023-03-01T01:01:08;100742.32;;;0.35;36.58
74881;BME280;63427;49.654;6.596;2023-03-01T01:03:32;100740.12;;;0.11;36.50
74881;BME280;63427;49.654;6.596;2023-03-01T01:05:57;100742.02;;;0.22;36.54
74881;BME280;63427;49.654;6.596;2023-03-01T01:08:22;100743.08;;;0.28;36.56
74881;BME280;63427;49.654;6.596;2023-03-01T01:10:47;100745.68;;;0.25;36.48
74881;BME280;63427;49.654;6.596;2023-03-01T01:13:14;100744.35;;;0.26;36.58
74881;BME280;63427;49.654;6.596;2023-03-01T01:15:38;100741.52;;;0.16;36.86
74881;BME280;63427;49.654;6.596;2023-03-01T01:18:03;100736.68;;;0.19;36.56
74881;BME280;63427;49.654;6.596;2023-03-01T01:20:28;100735.38;;;-0.07;36.52
74881;BME280;63427;49.654;6.596;2023-03-01T01:22:54;100728.08;;;0.07;36.40
74881;BME280;63427;49.654;6.596;2023-03-01T01:25:19;100727.32;;;0.02;36.60
74881;BME280;63427;49.654;6.596;2023-03-01T01:27:44;100721.79;;;0.01;36.96
74881;BME280;63427;49.654;6.596;2023-03-01T01:30:10;100722.52;;;-0.01;36.89
74881;BME280;63427;49.654;6.596;2023-03-01T01:32:35;100727.22;;;-0.03;36.76
74881;BME280;63427;49.654;6.596;2023-03-01T01:35:00;100730.10;;;-0.02;36.85
74881;BME280;63427;49.654;6.596;2023-03-01T01:37:26;100730.74;;;-0.13;37.08
74881;BME280;63427;49.654;6.596;2023-03-01T01:39:51;100720.27;;;-0.07;36.91
74881;BME280;63427;49.654;6.596;2023-03-01T01:42:18;100720.89;;;-0.01;36.91
74881;BME280;63427;49.654;6.596;2023-03-01T01:44:42;100721.90;;;-0.10;36.95
74881;BME280;63427;49.654;6.596;2023-03-01T01:47:12;100720.38;;;-0.10;37.03
74881;BME280;63427;49.654;6.596;2023-03-01T01:49:36;100717.32;;;-0.08;36.88
74881;BME280;63427;49.654;6.596;2023-03-01T01:52:03;100712.76;;;-0.15;36.75
74881;BME280;63427;49.654;6.596;2023-03-01T01:54:26;100707.79;;;-0.15;36.78
74881;BME280;63427;49.654;6.596;2023-03-01T01:56:52;100700.62;;;-0.17;36.78
74881;BME280;63427;49.654;6.596;2023-03-01T01:59:14;100696.60;;;-0.17;36.70
74881;BME280;63427;49.654;6.596;2023-03-01T02:01:40;100690.03;;;-0.16;36.93
74881;BME280;63427;49.654;6.596;2023-03-01T02:04:05;100682.98;;;-0.23;37.15
74881;BME280;63427;49.654;6.596;2023-03-01T02:06:35;100677.70;;;-0.17;36.98
74881;BME280;63427;49.654;6.596;2023-03-01T02:09:06;100667.59;;;-0.27;37.11
74881;BME280;63427;49.654;6.596;2023-03-01T02:11:22;100659.50;;;-0.28;37.01
74881;BME280;63427;49.654;6.596;2023-03-01T02:13:47;100656.14;;;-0.06;37.48
74881;BME280;63427;49.654;6.596;2023-03-01T02:16:14;100649.53;;;-0.34;37.24
74881;BME280;63427;49.654;6.596;2023-03-01T02:18:38;100645.83;;;-0.26;37.45
74881;BME280;63427;49.654;6.596;2023-03-01T02:21:12;100642.47;;;-0.30;37.19
74881;BME280;63427;49.654;6.596;2023-03-01T02:23:28;100636.41;;;-0.29;37.16
74881;BME280;63427;49.654;6.596;2023-03-01T02:25:58;100628.52;;;-0.28;37.17
74881;BME280;63427;49.654;6.596;2023-03-01T02:28:24;100632.43;;;-0.32;37.12
74881;BME280;63427;49.654;6.596;2023-03-01T02:30:46;100633.68;;;-0.42;37.64
74881;BME280;63427;49.654;6.596;2023-03-01T02:33:09;100635.54;;;-0.33;37.56
74881;BME280;63427;49.654;6.596;2023-03-01T02:35:37;100631.34;;;-0.45;37.43
74881;BME280;63427;49.654;6.596;2023-03-01T02:38:02;100630.45;;;-0.13;37.82
74881;BME280;63427;49.654;6.596;2023-03-01T02:40:27;100632.65;;;-0.66;38.38
74881;BME280;63427;49.654;6.596;2023-03-01T02:42:54;100637.02;;;-0.31;37.78
74881;BME280;63427;49.654;6.596;2023-03-01T02:45:16;100636.02;;;-0.40;37.75
74881;BME280;63427;49.654;6.596;2023-03-01T02:47:42;100635.48;;;-0.36;37.77
74881;BME280;63427;49.654;6.596;2023-03-01T02:50:19;100631.87;;;-0.28;37.33
74881;BME280;63427;49.654;6.596;2023-03-01T02:52:41;100639.66;;;-0.09;37.53
74881;BME280;63427;49.654;6.596;2023-03-01T02:55:01;100638.22;;;-0.30;37.06
74881;BME280;63427;49.654;6.596;2023-03-01T02:57:24;100637.81;;;-0.32;37.51
74881;BME280;63427;49.654;6.596;2023-03-01T02:59:50;100639.58;;;-0.30;37.29
74881;BME280;63427;49.654;6.596;2023-03-01T03:02:21;100643.46;;;-0.19;37.17
74881;BME280;63427;49.654;6.596;2023-03-01T03:04:41;100639.84;;;-0.18;37.15
74881;BME280;63427;49.654;6.596;2023-03-01T03:07:05;100633.13;;;-0.21;37.08
74881;BME280;63427;49.654;6.596;2023-03-01T03:09:30;100631.38;;;-0.32;37.18
74881;BME280;63427;49.654;6.596;2023-03-01T03:11:56;100632.06;;;-0.37;37.15
74881;BME280;63427;49.654;6.596;2023-03-01T03:14:22;100629.36;;;-0.33;37.31
74881;BME280;63427;49.654;6.596;2023-03-01T03:16:48;100624.26;;;-0.33;37.53
74881;BME280;63427;49.654;6.596;2023-03-01T03:19:12;100618.59;;;-0.27;37.36
74881;BME280;63427;49.654;6.596;2023-03-01T03:21:38;100619.97;;;-0.54;38.05
74881;BME280;63427;49.654;6.596;2023-03-01T03:24:04;100614.25;;;-0.44;37.66
74881;BME280;63427;49.654;6.596;2023-03-01T03:26:29;100607.87;;;-0.41;37.44
74881;BME280;63427;49.654;6.596;2023-03-01T03:28:54;100606.61;;;-0.15;37.62
74881;BME280;63427;49.654;6.596;2023-03-01T03:31:19;100603.14;;;-0.20;37.42
74881;BME280;63427;49.654;6.596;2023-03-01T03:33:44;100605.21;;;-0.45;37.39
74881;BME280;63427;49.654;6.596;2023-03-01T03:36:15;100597.45;;;-0.19;37.52
74881;BME280;63427;49.654;6.596;2023-03-01T03:38:35;100595.15;;;-0.49;37.55
74881;BME280;63427;49.654;6.596;2023-03-01T03:41:02;100589.23;;;-0.34;37.47
74881;BME280;63427;49.654;6.596;2023-03-01T03:43:26;100589.14;;;-0.30;38.28
74881;BME280;63427;49.654;6.596;2023-03-01T03:45:51;100585.05;;;-0.19;37.78
74881;BME280;63427;49.654;6.596;2023-03-01T03:48:17;100579.76;;;-0.41;37.83
74881;BME280;63427;49.654;6.596;2023-03-01T03:50:48;100573.23;;;-0.48;37.92
74881;BME280;63427;49.654;6.596;2023-03-01T03:53:10;100573.96;;;-0.23;37.76
74881;BME280;63427;49.654;6.596;2023-03-01T03:55:33;100570.54;;;-0.46;37.85
74881;BME280;63427;49.654;6.596;2023-03-01T03:57:59;100572.68;;;-0.52;37.91
74881;BME280;63427;49.654;6.596;2023-03-01T04:00:24;100575.72;;;-0.52;37.88
74881;BME280;63427;49.654;6.596;2023-03-01T04:02:50;100575.92;;;-0.23;37.78
74881;BME280;63427;49.654;6.596;2023-03-01T04:05:17;100575.47;;;-0.49;37.49
74881;BME280;63427;49.654;6.596;2023-03-01T04:07:41;100571.52;;;-0.41;37.69
74881;BME280;63427;49.654;6.596;2023-03-01T04:10:08;100570.80;;;-0.48;37.98
74881;BME280;63427;49.654;6.596;2023-03-01T04:12:30;100568.84;;;-0.41;37.53
74881;BME280;63427;49.654;6.596;2023-03-01T04:14:56;100570.88;;;-0.40;37.24
74881;BME280;63427;49.654;6.596;2023-03-01T04:17:21;100565.51;;;-0.47;37.42
74881;BME280;63427;49.654;6.596;2023-03-01T04:19:45;100563.97;;;-0.48;37.34
74881;BME280;63427;49.654;6.596;2023-03-01T04:22:11;100566.52;;;-0.43;37.42
74881;BME280;63427;49.654;6.596;2023-03-01T04:24:36;100566.95;;;-0.01;37.79
74881;BME280;63427;49.654;6.596;2023-03-01T04:27:02;100567.19;;;-0.28;37.80
74881;BME280;63427;49.654;6.596;2023-03-01T04:29:27;100566.42;;;-0.41;37.89
74881;BME280;63427;49.654;6.596;2023-03-01T04:31:53;100565.65;;;-0.41;38.06
74881;BME280;63427;49.654;6.596;2023-03-01T04:34:20;100567.38;;;-0.41;38.33
74881;BME280;63427;49.654;6.596;2023-03-01T04:36:43;100561.15;;;-0.27;38.36
74881;BME280;63427;49.654;6.596;2023-03-01T04:39:09;100559.35;;;-0.24;38.04
74881;BME280;63427;49.654;6.596;2023-03-01T04:41:34;100557.19;;;-0.25;38.32
74881;BME280;63427;49.654;6.596;2023-03-01T04:43:59;100559.31;;;-0.21;38.45
74881;BME280;63427;49.654;6.596;2023-03-01T04:46:25;100557.16;;;-0.44;38.99
74881;BME280;63427;49.654;6.596;2023-03-01T04:48:50;100554.07;;;-0.01;38.45
74881;BME280;63427;49.654;6.596;2023-03-01T04:51:16;100559.76;;;-0.03;38.47
74881;BME280;63427;49.654;6.596;2023-03-01T04:53:42;100556.23;;;0.12;38.09
74881;BME280;63427;49.654;6.596;2023-03-01T04:56:07;100550.46;;;0.11;38.58
74881;BME280;63427;49.654;6.596;2023-03-01T04:58:32;100550.25;;;0.37;38.18
74881;BME280;63427;49.654;6.596;2023-03-01T05:00:58;100554.39;;;0.30;38.22
74881;BME280;63427;49.654;6.596;2023-03-01T05:03:23;100556.77;;;0.20;38.03
74881;BME280;63427;49.654;6.596;2023-03-01T05:05:51;100556.46;;;0.27;37.74
74881;BME280;63427;49.654;6.596;2023-03-01T05:08:14;100552.34;;;0.30;37.69
74881;BME280;63427;49.654;6.596;2023-03-01T05:10:39;100557.74;;;0.43;37.78
74881;BME280;63427;49.654;6.596;2023-03-01T05:13:04;100551.92;;;0.29;37.85
74881;BME280;63427;49.654;6.596;2023-03-01T05:15:31;100546.86;;;-0.18;37.82
74881;BME280;63427;49.654;6.596;2023-03-01T05:17:57;100545.13;;;0.35;37.57
74881;BME280;63427;49.654;6.596;2023-03-01T05:20:21;100542.92;;;0.53;37.61
74881;BME280;63427;49.654;6.596;2023-03-01T05:22:46;100539.42;;;0.02;38.15
74881;BME280;63427;49.654;6.596;2023-03-01T05:25:11;100540.02;;;0.21;37.77
74881;BME280;63427;49.654;6.596;2023-03-01T05:27:37;100541.83;;;0.31;37.70
74881;BME280;63427;49.654;6.596;2023-03-01T05:30:03;100540.25;;;0.30;38.01
74881;BME280;63427;49.654;6.596;2023-03-01T05:32:27;100537.31;;;0.11;37.91
74881;BME280;63427;49.654;6.596;2023-03-01T05:34:53;100530.59;;;0.59;37.72
74881;BME280;63427;49.654;6.596;2023-03-01T05:37:19;100527.65;;;0.52;37.40
74881;BME280;63427;49.654;6.596;2023-03-01T05:39:45;100526.73;;;0.79;37.41
74881;BME280;63427;49.654;6.596;2023-03-01T05:42:10;100528.51;;;0.68;37.21
74881;BME280;63427;49.654;6.596;2023-03-01T05:44:35;100531.34;;;0.38;37.23
74881;BME280;63427;49.654;6.596;2023-03-01T05:47:00;100530.45;;;0.73;37.02
74881;BME280;63427;49.654;6.596;2023-03-01T05:49:25;100524.26;;;1.08;36.95
74881;BME280;63427;49.654;6.596;2023-03-01T05:51:52;100520.06;;;0.73;36.81
74881;BME280;63427;49.654;6.596;2023-03-01T05:54:16;100518.37;;;0.76;36.84
74881;BME280;63427;49.654;6.596;2023-03-01T05:56:41;100523.23;;;0.81;36.48
74881;BME280;63427;49.654;6.596;2023-03-01T05:59:07;100524.41;;;1.11;36.61
74881;BME280;63427;49.654;6.596;2023-03-01T06:01:32;100525.78;;;0.82;36.72
74881;BME280;63427;49.654;6.596;2023-03-01T06:03:57;100528.94;;;0.95;36.58
74881;BME280;63427;49.654;6.596;2023-03-01T06:06:23;100532.12;;;0.97;36.49
74881;BME280;63427;49.654;6.596;2023-03-01T06:08:49;100531.72;;;0.96;36.63
74881;BME280;63427;49.654;6.596;2023-03-01T06:11:15;100534.70;;;1.01;36.60
74881;BME280;63427;49.654;6.596;2023-03-01T06:13:41;100534.57;;;1.02;36.48
74881;BME280;63427;49.654;6.596;2023-03-01T06:16:06;100538.55;;;0.82;36.56
74881;BME280;63427;49.654;6.596;2023-03-01T06:18:30;100536.70;;;0.96;36.41
74881;BME280;63427;49.654;6.596;2023-03-01T06:20:55;100536.32;;;0.97;36.27
74881;BME280;63427;49.654;6.596;2023-03-01T06:23:21;100539.61;;;0.91;36.31
74881;BME280;63427;49.654;6.596;2023-03-01T06:25:48;100541.76;;;1.16;36.42
74881;BME280;63427;49.654;6.596;2023-03-01T06:28:12;100543.16;;;0.82;36.78
74881;BME280;63427;49.654;6.596;2023-03-01T06:30:37;100545.74;;;1.09;36.42
74881;BME280;63427;49.654;6.596;2023-03-01T06:33:03;100547.69;;;1.00;36.73
74881;BME280;63427;49.654;6.596;2023-03-01T06:35:30;100549.80;;;0.99;36.56
74881;BME280;63427;49.654;6.596;2023-03-01T06:37:55;100549.35;;;1.19;36.26
74881;BME280;63427;49.654;6.596;2023-03-01T06:40:19;100548.01;;;1.35;36.10
74881;BME280;63427;49.654;6.596;2023-03-01T06:42:49;100549.90;;;1.43;36.01
74881;BME280;63427;49.654;6.596;2023-03-01T06:45:11;100551.05;;;1.45;35.89
74881;BME280;63427;49.654;6.596;2023-03-01T06:47:35;100548.11;;;1.35;36.27
74881;BME280;63427;49.654;6.596;2023-03-01T06:50:01;100544.83;;;1.26;36.37
74881;BME280;63427;49.654;6.596;2023-03-01T06:52:26;100543.62;;;1.40;36.12
74881;BME280;63427;49.654;6.596;2023-03-01T06:54:51;100539.41;;;1.43;36.05
74881;BME280;63427;49.654;6.596;2023-03-01T06:57:17;100542.45;;;1.23;36.10
74881;BME280;63427;49.654;6.596;2023-03-01T06:59:42;100540.20;;;1.15;36.31
74881;BME280;63427;49.654;6.596;2023-03-01T07:02:10;100542.74;;;1.19;36.35
74881;BME280;63427;49.654;6.596;2023-03-01T07:04:32;100538.87;;;0.95;36.63
74881;BME280;63427;49.654;6.596;2023-03-01T07:06:57;100532.23;;;1.57;36.24
74881;BME280;63427;49.654;6.596;2023-03-01T07:09:23;100531.40;;;1.51;36.08
74881;BME280;63427;49.654;6.596;2023-03-01T07:11:48;100529.33;;;1.72;36.11
74881;BME280;63427;49.654;6.596;2023-03-01T07:14:14;100527.38;;;1.37;36.08
74881;BME280;63427;49.654;6.596;2023-03-01T07:16:40;100521.59;;;1.72;35.99
74881;BME280;63427;49.654;6.596;2023-03-01T07:19:05;100521.77;;;1.51;36.05
74881;BME280;63427;49.654;6.596;2023-03-01T07:21:30;100523.09;;;1.61;35.83
74881;BME280;63427;49.654;6.596;2023-03-01T07:23:55;100521.90;;;1.61;35.77
74881;BME280;63427;49.654;6.596;2023-03-01T07:26:21;100517.22;;;1.65;35.97
74881;BME280;63427;49.654;6.596;2023-03-01T07:28:46;100514.51;;;1.90;36.31
74881;BME280;63427;49.654;6.596;2023-03-01T07:31:12;100511.51;;;1.53;36.25
74881;BME280;63427;49.654;6.596;2023-03-01T07:33:37;100515.40;;;1.47;36.29
74881;BME280;63427;49.654;6.596;2023-03-01T07:36:03;100512.89;;;1.87;36.13
74881;BME280;63427;49.654;6.596;2023-03-01T07:38:29;100511.70;;;1.67;36.09
74881;BME280;63427;49.654;6.596;2023-03-01T07:40:57;100509.04;;;1.74;35.89
74881;BME280;63427;49.654;6.596;2023-03-01T07:43:19;100507.32;;;1.96;35.77
74881;BME280;63427;49.654;6.596;2023-03-01T07:45:44;100510.56;;;1.87;35.69
74881;BME280;63427;49.654;6.596;2023-03-01T07:48:10;100513.01;;;1.91;35.87
74881;BME280;63427;49.654;6.596;2023-03-01T07:50:35;100511.50;;;1.79;36.37
74881;BME280;63427;49.654;6.596;2023-03-01T07:53:00;100517.19;;;2.14;35.80
74881;BME280;63427;49.654;6.596;2023-03-01T07:55:26;100517.07;;;2.36;35.43
74881;BME280;63427;49.654;6.596;2023-03-01T07:57:51;100513.65;;;2.69;35.05
74881;BME280;63427;49.654;6.596;2023-03-01T08:00:18;100512.42;;;2.45;35.20
74881;BME280;63427;49.654;6.596;2023-03-01T08:02:43;100510.09;;;2.42;34.73
74881;BME280;63427;49.654;6.596;2023-03-01T08:05:09;100506.80;;;2.20;35.01
74881;BME280;63427;49.654;6.596;2023-03-01T08:07:33;100506.25;;;2.29;34.89
74881;BME280;63427;49.654;6.596;2023-03-01T08:09:59;100504.21;;;2.65;34.65
74881;BME280;63427;49.654;6.596;2023-03-01T08:12:24;100499.71;;;2.81;34.54
74881;BME280;63427;49.654;6.596;2023-03-01T08:14:50;100496.33;;;3.14;34.31
74881;BME280;63427;49.654;6.596;2023-03-01T08:17:15;100494.25;;;3.16;34.51
74881;BME280;63427;49.654;6.596;2023-03-01T08:19:42;100495.87;;;2.93;34.21
74881;BME280;63427;49.654;6.596;2023-03-01T08:22:06;100490.17;;;2.61;34.77
74881;BME280;63427;49.654;6.596;2023-03-01T08:24:31;100492.05;;;2.29;35.02
74881;BME280;63427;49.654;6.596;2023-03-01T08:26:57;100487.56;;;2.68;34.88
74881;BME280;63427;49.654;6.596;2023-03-01T08:29:23;100488.89;;;2.94;34.49
74881;BME280;63427;49.654;6.596;2023-03-01T08:31:48;100489.18;;;3.43;34.51
74881;BME280;63427;49.654;6.596;2023-03-01T08:34:15;100486.72;;;3.37;33.51
74881;BME280;63427;49.654;6.596;2023-03-01T08:36:41;100484.65;;;4.01;33.21
74881;BME280;63427;49.654;6.596;2023-03-01T08:39:06;100479.35;;;3.90;33.15
74881;BME280;63427;49.654;6.596;2023-03-01T08:41:31;100477.46;;;3.93;32.72
74881;BME280;63427;49.654;6.596;2023-03-01T08:43:56;100480.21;;;4.24;32.66
74881;BME280;63427;49.654;6.596;2023-03-01T08:46:21;100478.16;;;4.35;32.02
74881;BME280;63427;49.654;6.596;2023-03-01T08:48:46;100474.89;;;5.14;32.13
74881;BME280;63427;49.654;6.596;2023-03-01T08:51:13;100473.74;;;4.53;31.99
74881;BME280;63427;49.654;6.596;2023-03-01T08:53:37;100465.31;;;5.44;31.30
74881;BME280;63427;49.654;6.596;2023-03-01T08:56:03;100463.17;;;5.15;30.99
74881;BME280;63427;49.654;6.596;2023-03-01T08:58:27;100468.30;;;5.25;31.21
74881;BME280;63427;49.654;6.596;2023-03-01T09:00:53;100467.08;;;5.73;30.88
74881;BME280;63427;49.654;6.596;2023-03-01T09:03:18;100463.13;;;5.48;30.19
74881;BME280;63427;49.654;6.596;2023-03-01T09:05:44;100448.50;;;6.08;29.91
74881;BME280;63427;49.654;6.596;2023-03-01T09:08:09;100445.45;;;6.15;29.99
74881;BME280;63427;49.654;6.596;2023-03-01T09:10:37;100440.76;;;6.72;30.32
74881;BME280;63427;49.654;6.596;2023-03-01T09:12:59;100440.03;;;6.36;29.79
74881;BME280;63427;49.654;6.596;2023-03-01T09:15:25;100434.13;;;7.25;28.11
74881;BME280;63427;49.654;6.596;2023-03-01T09:17:51;100436.34;;;7.42;27.15
74881;BME280;63427;49.654;6.596;2023-03-01T09:20:16;100431.08;;;7.30;27.28
74881;BME280;63427;49.654;6.596;2023-03-01T09:22:42;100427.05;;;7.66;27.88
74881;BME280;63427;49.654;6.596;2023-03-01T09:25:08;100427.96;;;7.70;27.30
74881;BME280;63427;49.654;6.596;2023-03-01T09:27:33;100422.91;;;6.85;26.68
74881;BME280;63427;49.654;6.596;2023-03-01T09:29:59;100422.20;;;8.11;26.13
74881;BME280;63427;49.654;6.596;2023-03-01T09:32:24;100419.98;;;8.74;25.96
74881;BME280;63427;49.654;6.596;2023-03-01T09:34:50;100415.14;;;9.11;24.79
74881;BME280;63427;49.654;6.596;2023-03-01T09:37:16;100414.29;;;8.81;23.99
74881;BME280;63427;49.654;6.596;2023-03-01T09:39:41;100415.97;;;8.28;24.77
74881;BME280;63427;49.654;6.596;2023-03-01T09:42:12;100408.66;;;9.24;24.67
74881;BME280;63427;49.654;6.596;2023-03-01T09:44:38;100406.64;;;8.11;25.10
74881;BME280;63427;49.654;6.596;2023-03-01T09:46:59;100408.98;;;9.28;23.51
74881;BME280;63427;49.654;6.596;2023-03-01T09:49:25;100401.30;;;9.91;23.06
74881;BME280;63427;49.654;6.596;2023-03-01T09:51:56;100398.24;;;9.25;23.30
74881;BME280;63427;49.654;6.596;2023-03-01T09:54:14;100400.78;;;9.88;22.71
74881;BME280;63427;49.654;6.596;2023-03-01T09:56:41;100397.48;;;10.26;22.25
74881;BME280;63427;49.654;6.596;2023-03-01T09:59:15;100402.45;;;10.02;22.16
74881;BME280;63427;49.654;6.596;2023-03-01T10:01:34;100397.08;;;9.77;22.75
74881;BME280;63427;49.654;6.596;2023-03-01T10:04:08;100398.50;;;10.08;22.17
74881;BME280;63427;49.654;6.596;2023-03-01T10:06:23;100404.04;;;10.41;21.94
74881;BME280;63427;49.654;6.596;2023-03-01T10:08:53;100398.25;;;10.56;21.96
74881;BME280;63427;49.654;6.596;2023-03-01T10:11:20;100396.16;;;10.10;22.19
74881;BME280;63427;49.654;6.596;2023-03-01T10:13:45;100387.05;;;10.37;22.47
74881;BME280;63427;49.654;6.596;2023-03-01T10:16:11;100383.09;;;11.36;21.66
74881;BME280;63427;49.654;6.596;2023-03-01T10:18:31;100374.45;;;11.56;20.79
74881;BME280;63427;49.654;6.596;2023-03-01T10:20:59;100373.71;;;12.29;20.14
74881;BME280;63427;49.654;6.596;2023-03-01T10:23:23;100369.66;;;12.92;19.93
74881;BME280;63427;49.654;6.596;2023-03-01T10:25:55;100366.97;;;12.15;19.50
74881;BME280;63427;49.654;6.596;2023-03-01T10:28:17;100364.80;;;13.16;18.84
74881;BME280;63427;49.654;6.596;2023-03-01T10:30:39;100360.13;;;12.46;18.99
74881;BME280;63427;49.654;6.596;2023-03-01T10:33:05;100361.46;;;11.06;20.36
74881;BME280;63427;49.654;6.596;2023-03-01T10:35:31;100349.84;;;12.27;21.21
74881;BME280;63427;49.654;6.596;2023-03-01T10:37:58;100353.51;;;12.43;19.92
74881;BME280;63427;49.654;6.596;2023-03-01T10:40:20;100352.44;;;13.07;18.99
74881;BME280;63427;49.654;6.596;2023-03-01T10:42:48;100352.98;;;13.25;18.59
74881;BME280;63427;49.654;6.596;2023-03-01T10:45:17;100348.64;;;13.15;18.46
74881;BME280;63427;49.654;6.596;2023-03-01T10:47:36;100350.25;;;12.76;19.09
74881;BME280;63427;49.654;6.596;2023-03-01T10:50:03;100344.92;;;13.42;18.13
74881;BME280;63427;49.654;6.596;2023-03-01T10:52:30;100342.77;;;13.86;17.96
74881;BME280;63427;49.654;6.596;2023-03-01T10:54:54;100347.96;;;13.50;18.30
74881;BME280;63427;49.654;6.596;2023-03-01T10:57:26;100342.11;;;13.67;18.36
74881;BME280;63427;49.654;6.596;2023-03-01T10:59:42;100346.56;;;13.94;17.92
74881;BME280;63427;49.654;6.596;2023-03-01T11:02:17;100341.21;;;12.88;19.52
74881;BME280;63427;49.654;6.596;2023-03-01T11:04:32;100336.57;;;13.86;17.93
74881;BME280;63427;49.654;6.596;2023-03-01T11:06:59;100338.04;;;13.47;19.52
74881;BME280;63427;49.654;6.596;2023-03-01T11:09:24;100332.83;;;13.84;18.75
74881;BME280;63427;49.654;6.596;2023-03-01T11:11:52;100331.04;;;13.39;18.56
74881;BME280;63427;49.654;6.596;2023-03-01T11:14:16;100324.46;;;13.77;18.47
74881;BME280;63427;49.654;6.596;2023-03-01T11:16:42;100317.95;;;13.78;18.28
74881;BME280;63427;49.654;6.596;2023-03-01T11:19:18;100322.52;;;12.91;18.81
74881;BME280;63427;49.654;6.596;2023-03-01T11:21:33;100316.27;;;13.14;19.03
74881;BME280;63427;49.654;6.596;2023-03-01T11:23:58;100308.48;;;13.44;18.58
74881;BME280;63427;49.654;6.596;2023-03-01T11:26:22;100304.88;;;13.35;18.38
74881;BME280;63427;49.654;6.596;2023-03-01T11:28:50;100300.70;;;14.01;18.03
74881;BME280;63427;49.654;6.596;2023-03-01T11:31:13;100295.94;;;13.93;18.02
74881;BME280;63427;49.654;6.596;2023-03-01T11:33:43;100295.74;;;13.80;18.10
74881;BME280;63427;49.654;6.596;2023-03-01T11:36:08;100287.92;;;14.78;17.62
74881;BME280;63427;49.654;6.596;2023-03-01T11:38:32;100285.29;;;15.60;17.59
74881;BME280;63427;49.654;6.596;2023-03-01T11:40:59;100277.09;;;15.85;16.27
74881;BME280;63427;49.654;6.596;2023-03-01T11:43:26;100278.93;;;16.01;16.27
74881;BME280;63427;49.654;6.596;2023-03-01T11:46:02;100270.12;;;15.08;17.96
74881;BME280;63427;49.654;6.596;2023-03-01T11:48:25;100261.68;;;15.00;17.18
74881;BME280;63427;49.654;6.596;2023-03-01T11:50:41;100252.96;;;14.43;17.59
74881;BME280;63427;49.654;6.596;2023-03-01T11:53:21;100246.32;;;14.81;17.03
74881;BME280;63427;49.654;6.596;2023-03-01T11:55:39;100238.75;;;15.12;17.56
74881;BME280;63427;49.654;6.596;2023-03-01T11:58:05;100248.21;;;14.40;17.23
74881;BME280;63427;49.654;6.596;2023-03-01T12:00:28;100242.63;;;14.29;17.79
74881;BME280;63427;49.654;6.596;2023-03-01T12:03:02;100233.24;;;15.05;17.37
74881;BME280;63427;49.654;6.596;2023-03-01T12:05:24;100241.70;;;13.69;18.01
74881;BME280;63427;49.654;6.596;2023-03-01T12:07:41;100234.86;;;14.37;18.64
74881;BME280;63427;49.654;6.596;2023-03-01T12:12:34;100219.65;;;15.38;16.65
74881;BME280;63427;49.654;6.596;2023-03-01T12:14:59;100214.03;;;15.94;16.90
74881;BME280;63427;49.654;6.596;2023-03-01T12:17:32;100209.47;;;15.63;16.64
74881;BME280;63427;49.654;6.596;2023-03-01T12:19:59;100197.11;;;15.40;16.83
74881;BME280;63427;49.654;6.596;2023-03-01T12:22:17;100200.43;;;15.28;16.96
74881;BME280;63427;49.654;6.596;2023-03-01T12:24:44;100193.45;;;15.63;17.13
74881;BME280;63427;49.654;6.596;2023-03-01T12:27:09;100189.68;;;16.33;16.59
74881;BME280;63427;49.654;6.596;2023-03-01T12:29:26;100186.80;;;15.55;17.52
74881;BME280;63427;49.654;6.596;2023-03-01T12:32:08;100178.18;;;14.98;17.38
74881;BME280;63427;49.654;6.596;2023-03-01T12:34:28;100175.06;;;14.48;17.33
74881;BME280;63427;49.654;6.596;2023-03-01T12:36:50;100181.39;;;13.44;18.71
74881;BME280;63427;49.654;6.596;2023-03-01T12:39:17;100174.87;;;14.12;18.21
74881;BME280;63427;49.654;6.596;2023-03-01T12:41:42;100172.51;;;13.88;18.33
74881;BME280;63427;49.654;6.596;2023-03-01T12:44:04;100172.19;;;14.24;18.06
74881;BME280;63427;49.654;6.596;2023-03-01T12:46:32;100166.10;;;13.58;18.29